Time;durP1;ratioP1;P1;durP2;ratioP2;P2;SDS_P1;SDS_P2;PMS_P1;PMS_P2;Temp;Humidity;BMP_temperature;BMP_pressure;BME280_temperature;BME280_humidity;BME280_pressure;Samples;Min_cycle;Max_cycle;Signal;HPM_P1;HPM_P2
2022/05/28 00:00:03;;;;;;;1.37;0.80;;;20.00;50.80;;;;;;5068349;27;20545;-48
2022/05/28 00:02:44;;;;;;;1.17;0.80;;;20.00;50.90;;;;;;5121898;27;20520;-47
2022/05/28 00:05:25;;;;;;;3.30;1.00;;;20.00;50.90;;;;;;5100317;27;21053;-49
2022/05/28 00:08:08;;;;;;;1.43;0.80;;;20.00;50.80;;;;;;5065707;28;20607;-49
2022/05/28 00:10:48;;;;;;;1.10;0.80;;;20.00;50.90;;;;;;5081077;28;20515;-48
2022/05/28 00:13:29;;;;;;;1.00;0.87;;;19.90;50.90;;;;;;5104901;27;20545;-48
2022/05/28 00:16:12;;;;;;;1.30;1.00;;;20.00;51.00;;;;;;5060853;28;21044;-48
2022/05/28 00:18:54;;;;;;;1.87;0.80;;;19.90;50.90;;;;;;5072746;28;20547;-48
2022/05/28 00:21:36;;;;;;;1.20;0.90;;;20.00;51.10;;;;;;5114092;27;21040;-49
2022/05/28 00:24:17;;;;;;;2.10;0.83;;;19.90;51.00;;;;;;5086345;27;20609;-48
2022/05/28 00:26:58;;;;;;;1.77;0.70;;;19.90;51.00;;;;;;5101487;27;20999;-48
2022/05/28 00:29:38;;;;;;;1.23;1.00;;;19.90;51.00;;;;;;5090709;27;20536;-48
2022/05/28 00:32:19;;;;;;;1.73;1.17;;;19.90;51.00;;;;;;5121790;27;20515;-48
2022/05/28 00:34:59;;;;;;;2.00;1.07;;;19.90;51.10;;;;;;5062278;27;20601;-48
2022/05/28 00:37:39;;;;;;;2.00;1.50;;;19.90;51.10;;;;;;5109311;27;20616;-48
2022/05/28 00:40:23;;;;;;;1.43;0.80;;;19.90;51.10;;;;;;5060371;27;20548;-48
2022/05/28 00:43:05;;;;;;;2.13;0.80;;;19.90;51.10;;;;;;5110211;27;21001;-49
2022/05/28 00:45:49;;;;;;;2.60;0.73;;;19.90;51.10;;;;;;5080614;28;20564;-48
2022/05/28 00:48:32;;;;;;;1.20;0.70;;;19.90;51.20;;;;;;5106917;27;21070;-48
2022/05/28 00:51:22;;;;;;;1.00;0.83;;;19.90;51.20;;;;;;5120133;27;20579;-49
2022/05/28 00:54:08;;;;;;;1.30;0.90;;;19.90;51.20;;;;;;5106964;27;20898;-48
2022/05/28 00:56:51;;;;;;;1.00;0.90;;;19.90;51.30;;;;;;5080682;27;20536;-47
2022/05/28 00:59:32;;;;;;;1.00;0.80;;;19.90;51.20;;;;;;5053690;27;20597;-54
2022/05/28 01:02:21;;;;;;;1.10;0.80;;;19.80;51.30;;;;;;5080624;28;20940;-48
2022/05/28 01:05:12;;;;;;;1.80;1.20;;;19.90;51.30;;;;;;5067642;27;20544;-49
2022/05/28 01:08:04;;;;;;;2.83;1.17;;;19.90;51.30;;;;;;5076762;27;20536;-48
2022/05/28 01:10:51;;;;;;;1.80;0.90;;;19.90;51.30;;;;;;5121206;27;20586;-48
2022/05/28 01:13:47;;;;;;;1.47;0.90;;;19.80;51.30;;;;;;5045669;28;20922;-48
2022/05/28 01:16:33;;;;;;;1.67;0.90;;;19.80;51.40;;;;;;5121037;27;20936;-48
2022/05/28 01:19:26;;;;;;;1.37;0.80;;;19.80;51.40;;;;;;5069002;28;21109;-48
2022/05/28 01:22:13;;;;;;;2.13;1.00;;;19.80;51.30;;;;;;5074417;27;20532;-47
2022/05/28 01:25:03;;;;;;;1.00;0.87;;;19.80;51.30;;;;;;5104102;27;20570;-48
2022/05/28 01:27:50;;;;;;;1.67;0.90;;;19.80;51.50;;;;;;5075390;27;20559;-48
2022/05/28 01:30:32;;;;;;;1.10;1.00;;;19.80;51.30;;;;;;5069748;27;20587;-47
2022/05/28 01:33:15;;;;;;;1.70;0.83;;;19.80;51.40;;;;;;5078237;28;20565;-47
2022/05/28 01:35:56;;;;;;;2.10;1.10;;;19.80;51.50;;;;;;5080827;27;20576;-48
2022/05/28 01:38:39;;;;;;;1.43;0.70;;;19.80;51.50;;;;;;5046606;28;20558;-48
2022/05/28 01:41:21;;;;;;;2.33;1.00;;;19.80;51.60;;;;;;5081121;28;20511;-47
2022/05/28 01:44:02;;;;;;;1.90;1.00;;;19.80;51.40;;;;;;5062054;28;20548;-48
2022/05/28 01:46:44;;;;;;;1.25;1.00;;;19.80;51.60;;;;;;5133116;27;1226098;-49
2022/05/28 01:49:25;;;;;;;4.03;1.10;;;19.80;51.60;;;;;;5077794;27;20585;-48
2022/05/28 01:52:07;;;;;;;1.97;1.07;;;19.80;51.60;;;;;;5078215;28;20592;-48
2022/05/28 01:54:49;;;;;;;1.97;1.47;;;19.80;51.60;;;;;;5064182;27;20602;-48
2022/05/28 01:57:30;;;;;;;1.70;0.97;;;19.70;51.50;;;;;;5099761;27;20999;-49
2022/05/28 02:00:14;;;;;;;1.00;0.73;;;19.70;51.60;;;;;;5044571;27;20550;-49
2022/05/28 02:02:56;;;;;;;1.30;0.70;;;19.70;51.60;;;;;;5122098;27;20542;-48
2022/05/28 02:05:38;;;;;;;1.27;1.00;;;19.70;51.40;;;;;;5099111;27;21475;-47
2022/05/28 02:08:19;;;;;;;2.30;1.03;;;19.70;51.60;;;;;;5102180;27;20749;-49
2022/05/28 02:11:11;;;;;;;1.67;1.00;;;19.70;51.70;;;;;;5081422;28;20560;-48
2022/05/28 02:13:57;;;;;;;1.87;0.90;;;19.70;51.60;;;;;;5096372;27;21040;-48
2022/05/28 02:16:43;;;;;;;1.43;1.03;;;19.70;51.70;;;;;;5122365;27;20517;-48
2022/05/28 02:19:30;;;;;;;1.37;0.80;;;19.70;51.70;;;;;;5046160;27;20607;-49
2022/05/28 02:22:17;;;;;;;1.73;0.53;;;19.70;51.80;;;;;;5078056;28;20533;-48
2022/05/28 02:25:05;;;;;;;1.37;0.90;;;19.70;51.80;;;;;;5063262;28;20540;-48
2022/05/28 02:27:48;;;;;;;1.33;0.83;;;19.70;51.80;;;;;;5089024;27;20603;-47
2022/05/28 02:30:32;;;;;;;1.20;0.83;;;19.70;51.80;;;;;;5074585;27;20545;-47
2022/05/28 02:33:12;;;;;;;1.90;0.80;;;19.70;51.80;;;;;;5099797;27;20511;-47
2022/05/28 02:35:53;;;;;;;0.93;0.63;;;19.70;51.70;;;;;;5101711;27;21073;-46
2022/05/28 02:38:34;;;;;;;1.77;0.87;;;19.70;51.90;;;;;;5061467;28;20545;-48
2022/05/28 02:41:15;;;;;;;1.67;0.90;;;19.60;51.80;;;;;;5146967;27;20573;-47
2022/05/28 02:43:58;;;;;;;1.17;0.90;;;19.60;51.80;;;;;;5102855;27;20597;-46
2022/05/28 02:46:39;;;;;;;1.37;1.10;;;19.60;51.90;;;;;;5081761;28;20519;-49
2022/05/28 02:49:20;;;;;;;1.27;0.80;;;19.60;52.00;;;;;;5086169;27;21045;-48
2022/05/28 02:52:05;;;;;;;1.63;0.80;;;19.60;52.00;;;;;;5007012;28;20548;-48
2022/05/28 02:54:46;;;;;;;0.90;0.80;;;19.60;52.10;;;;;;5084673;27;20798;-48
2022/05/28 02:57:29;;;;;;;1.77;0.97;;;19.60;52.10;;;;;;5118344;27;20534;-48
2022/05/28 03:00:10;;;;;;;1.37;0.80;;;19.60;52.10;;;;;;5066608;27;20950;-47
2022/05/28 03:02:50;;;;;;;0.90;0.80;;;19.60;52.10;;;;;;5081645;28;20523;-47
2022/05/28 03:05:33;;;;;;;2.13;0.93;;;19.60;52.10;;;;;;5060736;28;20646;-48
2022/05/28 03:08:19;;;;;;;1.57;1.10;;;19.60;52.10;;;;;;5065243;28;20614;-47
2022/05/28 03:10:59;;;;;;;1.80;1.00;;;19.60;52.10;;;;;;5113914;27;20526;-47
2022/05/28 03:13:41;;;;;;;1.17;0.80;;;19.60;52.10;;;;;;5101708;27;20574;-47
2022/05/28 03:16:23;;;;;;;1.57;1.00;;;19.50;52.10;;;;;;5100024;27;20529;-48
2022/05/28 03:19:03;;;;;;;1.73;1.10;;;19.60;52.20;;;;;;5071540;27;20547;-48
2022/05/28 03:21:46;;;;;;;1.60;1.00;;;19.60;52.10;;;;;;5120399;27;20574;-48
2022/05/28 03:24:26;;;;;;;3.10;1.00;;;19.60;52.30;;;;;;5055243;28;21085;-50
2022/05/28 03:27:07;;;;;;;2.00;1.07;;;19.60;52.30;;;;;;5122191;27;20525;-48
2022/05/28 03:29:47;;;;;;;0.90;0.77;;;19.50;52.20;;;;;;5075500;27;20576;-48
2022/05/28 03:32:30;;;;;;;2.37;0.97;;;19.50;52.20;;;;;;5081094;27;20527;-49
2022/05/28 03:35:11;;;;;;;2.33;1.10;;;19.50;52.20;;;;;;5059749;27;21138;-47
2022/05/28 03:37:52;;;;;;;1.10;0.70;;;19.50;52.20;;;;;;5080752;28;20941;-48
2022/05/28 03:40:33;;;;;;;1.00;0.83;;;19.50;52.30;;;;;;5121942;27;20605;-48
2022/05/28 03:43:14;;;;;;;1.90;0.83;;;19.50;52.40;;;;;;5075605;28;20536;-48
2022/05/28 03:45:55;;;;;;;1.30;0.70;;;19.50;52.50;;;;;;5080302;28;21029;-48
2022/05/28 03:48:39;;;;;;;2.07;0.90;;;19.50;52.40;;;;;;5058481;27;20535;-48
2022/05/28 03:51:19;;;;;;;1.83;1.00;;;19.50;52.60;;;;;;5071629;27;20532;-48
2022/05/28 03:54:02;;;;;;;1.10;0.87;;;19.50;52.50;;;;;;5113224;27;20541;-48
2022/05/28 03:56:43;;;;;;;1.00;0.90;;;19.50;52.60;;;;;;5121483;27;20508;-48
2022/05/28 03:59:22;;;;;;;2.05;1.00;;;19.40;52.40;;;;;;5097822;27;1231115;-48
2022/05/28 04:02:03;;;;;;;1.53;1.23;;;19.40;52.30;;;;;;5122037;27;20516;-48
2022/05/28 04:04:44;;;;;;;0.90;0.67;;;19.40;52.40;;;;;;5065163;27;20544;-48
2022/05/28 04:07:25;;;;;;;1.93;0.90;;;19.40;52.50;;;;;;5115521;27;20540;-49
2022/05/28 04:10:07;;;;;;;1.57;0.87;;;19.40;52.50;;;;;;5133961;27;20554;-49
2022/05/28 04:12:50;;;;;;;1.47;0.93;;;19.40;52.60;;;;;;5075185;27;20611;-48
2022/05/28 04:15:32;;;;;;;1.57;1.13;;;19.40;52.60;;;;;;5106824;27;20901;-48
2022/05/28 04:18:13;;;;;;;1.87;1.53;;;19.40;52.50;;;;;;5077191;27;20601;-48
2022/05/28 04:20:56;;;;;;;0.90;0.80;;;19.40;52.50;;;;;;5121707;27;20513;-48
2022/05/28 04:23:36;;;;;;;1.20;0.93;;;19.40;53.70;;;;;;5074151;27;20612;-48
2022/05/28 04:26:19;;;;;;;1.33;0.80;;;19.40;52.50;;;;;;5120731;27;20529;-48
2022/05/28 04:29:00;;;;;;;1.87;0.73;;;19.40;52.70;;;;;;5094038;27;20880;-47
2022/05/28 04:31:42;;;;;;;1.00;0.90;;;19.40;52.60;;;;;;5081190;28;20573;-48
2022/05/28 04:34:25;;;;;;;1.13;0.90;;;19.40;52.70;;;;;;5085023;27;20546;-48
2022/05/28 04:37:09;;;;;;;1.63;1.20;;;19.30;52.60;;;;;;5074513;28;21083;-47
2022/05/28 04:39:49;;;;;;;2.50;0.80;;;19.40;52.60;;;;;;5075870;27;20555;-48
2022/05/28 04:42:32;;;;;;;1.03;0.83;;;19.30;52.60;;;;;;5078135;28;20861;-47
2022/05/28 04:45:12;;;;;;;1.40;0.77;;;19.30;52.70;;;;;;5043609;27;20543;-48
2022/05/28 04:47:53;;;;;;;1.70;0.93;;;19.30;52.70;;;;;;5081131;27;21065;-48
2022/05/28 04:50:39;;;;;;;1.40;0.80;;;19.30;52.70;;;;;;5059346;27;20607;-49
2022/05/28 04:53:22;;;;;;;2.50;0.60;;;19.30;52.50;;;;;;5112449;27;20540;-47
2022/05/28 04:56:05;;;;;;;2.93;1.00;;;19.30;52.80;;;;;;5079753;28;20516;-49
2022/05/28 04:58:54;;;;;;;4.03;0.90;;;19.30;52.70;;;;;;5066243;28;20562;-46
2022/05/28 05:01:36;;;;;;;1.13;0.90;;;19.30;52.80;;;;;;5121802;27;21113;-47
2022/05/28 05:04:19;;;;;;;2.47;0.90;;;19.30;52.80;;;;;;5111622;27;20536;-48
2022/05/28 05:07:01;;;;;;;3.40;1.20;;;19.30;52.90;;;;;;5119726;27;20532;-47
2022/05/28 05:09:42;;;;;;;1.63;1.00;;;19.30;52.90;;;;;;5078211;27;20545;-47
2022/05/28 05:12:22;;;;;;;1.97;0.90;;;19.30;52.80;;;;;;5119792;27;20524;-50
2022/05/28 05:15:02;;;;;;;3.13;1.33;;;19.20;52.80;;;;;;5062287;27;20925;-48
2022/05/28 05:17:44;;;;;;;1.83;1.00;;;19.20;52.80;;;;;;5101005;27;20534;-48
2022/05/28 05:20:30;;;;;;;1.57;1.13;;;19.20;52.90;;;;;;5121398;27;21111;-47
2022/05/28 05:23:17;;;;;;;1.60;0.87;;;19.20;52.60;;;;;;5098405;27;20535;-48
2022/05/28 05:25:57;;;;;;;4.23;1.90;;;19.20;52.80;;;;;;5079472;28;20520;-48
2022/05/28 05:28:37;;;;;;;2.67;1.57;;;19.20;52.70;;;;;;5051865;28;20550;-48
2022/05/28 05:31:23;;;;;;;2.70;1.37;;;19.20;52.70;;;;;;5077189;27;20583;-48
2022/05/28 05:34:04;;;;;;;1.57;0.80;;;19.20;52.70;;;;;;5089736;27;20595;-48
2022/05/28 05:36:46;;;;;;;1.73;1.10;;;19.20;52.80;;;;;;5076030;28;20622;-48
2022/05/28 05:39:26;;;;;;;2.80;1.33;;;19.20;52.90;;;;;;5085033;27;20791;-48
2022/05/28 05:42:08;;;;;;;3.30;1.00;;;19.20;52.40;;;;;;5080852;28;20585;-48
2022/05/28 05:44:48;;;;;;;1.03;0.73;;;19.20;52.90;;;;;;5084450;27;20602;-48
2022/05/28 05:47:30;;;;;;;1.60;1.00;;;19.20;52.90;;;;;;5112188;27;21329;-48
2022/05/28 05:50:12;;;;;;;1.33;1.03;;;19.20;52.80;;;;;;5066517;27;20955;-46
2022/05/28 05:52:52;;;;;;;1.23;1.00;;;19.20;52.90;;;;;;5117934;27;20533;-49
2022/05/28 05:55:34;;;;;;;2.47;1.10;;;19.20;52.90;;;;;;5080186;27;20641;-47
2022/05/28 05:58:15;;;;;;;0.97;0.73;;;19.20;53.10;;;;;;5113757;27;20668;-48
2022/05/28 06:00:58;;;;;;;2.50;1.13;;;19.20;53.00;;;;;;5127902;27;20331;-48
2022/05/28 06:03:45;;;;;;;2.00;1.10;;;19.20;52.90;;;;;;5075078;27;20554;-47
2022/05/28 06:06:27;;;;;;;1.57;1.40;;;19.20;53.00;;;;;;5118110;27;20614;-48
2022/05/28 06:09:08;;;;;;;1.37;0.70;;;19.20;52.90;;;;;;5071532;27;20545;-48
2022/05/28 06:11:52;;;;;;;2.17;1.20;;;19.20;53.10;;;;;;5120066;27;20982;-48
2022/05/28 06:14:32;;;;;;;2.50;1.20;;;19.20;53.00;;;;;;5072742;27;20636;-48
2022/05/28 06:17:14;;;;;;;1.13;0.63;;;19.10;53.00;;;;;;5081315;27;20553;-47
2022/05/28 06:19:54;;;;;;;1.60;1.00;;;19.20;53.10;;;;;;5064423;27;20643;-48
2022/05/28 06:22:36;;;;;;;1.13;1.03;;;19.20;53.20;;;;;;5120218;27;20564;-47
2022/05/28 06:25:18;;;;;;;1.20;1.07;;;19.20;53.20;;;;;;5060195;27;20549;-48
2022/05/28 06:27:59;;;;;;;1.37;0.93;;;19.20;53.10;;;;;;5073742;27;20578;-48
2022/05/28 06:30:43;;;;;;;1.50;0.90;;;19.10;53.00;;;;;;5121020;27;20532;-48
2022/05/28 06:33:24;;;;;;;1.97;1.17;;;19.10;53.10;;;;;;5094342;27;20623;-48
2022/05/28 06:36:08;;;;;;;2.03;1.00;;;19.10;52.90;;;;;;5118407;27;20610;-49
2022/05/28 06:38:49;;;;;;;1.90;1.00;;;19.10;53.00;;;;;;5107748;27;20907;-48
2022/05/28 06:41:31;;;;;;;4.37;0.93;;;19.10;53.10;;;;;;5101110;27;20593;-48
2022/05/28 06:44:13;;;;;;;2.20;1.00;;;19.10;53.00;;;;;;5060303;27;20553;-48
2022/05/28 06:46:53;;;;;;;2.57;1.27;;;19.10;53.20;;;;;;5079109;28;20606;-47
2022/05/28 06:49:36;;;;;;;1.70;1.03;;;19.10;53.10;;;;;;5074413;27;20546;-48
2022/05/28 06:52:19;;;;;;;1.40;0.73;;;19.10;53.20;;;;;;5138260;27;20342;-48
2022/05/28 06:55:05;;;;;;;1.67;1.00;;;19.10;53.20;;;;;;5063443;27;20545;-46
2022/05/28 06:57:46;;;;;;;1.80;0.70;;;19.10;53.30;;;;;;5075233;27;20646;-48
2022/05/28 07:00:27;;;;;;;1.47;0.80;;;19.10;53.30;;;;;;5079933;27;20545;-48
2022/05/28 07:03:13;;;;;;;1.43;0.70;;;19.10;53.10;;;;;;5120510;27;20535;-49
2022/05/28 07:05:56;;;;;;;1.60;0.90;;;19.10;53.20;;;;;;5078243;28;20534;-48
2022/05/28 07:08:40;;;;;;;1.60;1.00;;;19.00;53.10;;;;;;5068965;28;20602;-47
2022/05/28 07:11:21;;;;;;;2.60;0.83;;;19.10;53.20;;;;;;5122136;27;20602;-46
2022/05/28 07:14:02;;;;;;;1.60;1.40;;;19.00;53.00;;;;;;5079290;27;20595;-48
2022/05/28 07:16:44;;;;;;;1.40;0.97;;;19.00;53.20;;;;;;5122336;27;20927;-49
2022/05/28 07:19:25;;;;;;;3.37;1.10;;;19.10;53.20;;;;;;5068913;28;20735;-48
2022/05/28 07:22:06;;;;;;;4.00;1.50;;;19.00;53.10;;;;;;5079702;27;20578;-48
2022/05/28 07:24:48;;;;;;;1.20;0.90;;;19.00;53.10;;;;;;5064548;27;20561;-47
2022/05/28 07:27:31;;;;;;;2.50;1.10;;;19.00;53.10;;;;;;5076569;27;20625;-48
2022/05/28 07:30:13;;;;;;;3.10;1.13;;;19.00;53.20;;;;;;5102537;27;20563;-47
2022/05/28 07:32:55;;;;;;;1.97;0.90;;;19.00;53.30;;;;;;5120599;27;21226;-47
2022/05/28 07:35:36;;;;;;;2.80;1.00;;;19.00;53.20;;;;;;5120530;27;20860;-48
2022/05/28 07:38:16;;;;;;;1.63;0.70;;;19.00;53.10;;;;;;5055620;28;20886;-48
2022/05/28 07:41:02;;;;;;;3.03;1.53;;;19.00;53.20;;;;;;5082010;28;20504;-48
2022/05/28 07:43:43;;;;;;;2.27;1.10;;;19.00;53.20;;;;;;5075960;27;20546;-47
2022/05/28 07:46:36;;;;;;;2.07;1.33;;;19.00;53.30;;;;;;5122858;27;20509;-48
2022/05/28 07:49:16;;;;;;;1.57;0.90;;;19.00;53.30;;;;;;5129807;27;20572;-46
2022/05/28 07:52:03;;;;;;;1.70;1.00;;;19.00;53.20;;;;;;5084067;27;20587;-72
2022/05/28 07:54:45;;;;;;;1.70;1.13;;;19.00;53.30;;;;;;5078249;27;20533;-49
2022/05/28 07:57:25;;;;;;;2.13;0.90;;;19.00;53.40;;;;;;5078083;27;20561;-47
2022/05/28 08:00:11;;;;;;;1.87;0.90;;;19.00;53.40;;;;;;5067232;27;20691;-48
2022/05/28 08:02:52;;;;;;;2.80;1.40;;;19.00;53.40;;;;;;5122989;27;20610;-48
2022/05/28 08:05:34;;;;;;;1.33;0.90;;;19.00;53.40;;;;;;5121821;27;20518;-47
2022/05/28 08:08:17;;;;;;;1.70;1.07;;;19.00;53.40;;;;;;5105579;27;20930;-46
2022/05/28 08:11:00;;;;;;;1.60;0.90;;;19.00;53.40;;;;;;5081673;27;20524;-48
2022/05/28 08:13:40;;;;;;;1.40;1.00;;;19.00;53.40;;;;;;5105594;27;20594;-48
2022/05/28 08:16:25;;;;;;;1.10;0.80;;;19.00;53.40;;;;;;5082092;27;20520;-47
2022/05/28 08:19:06;;;;;;;1.10;1.00;;;19.00;53.40;;;;;;5082941;27;20644;-48
2022/05/28 08:24:50;;;;;;;1.80;0.80;;;19.00;53.40;;;;;;5061946;27;21160;-48
2022/05/28 08:27:31;;;;;;;1.50;1.13;;;19.00;53.50;;;;;;5080218;27;20956;-47
2022/05/28 08:30:14;;;;;;;1.20;0.97;;;19.00;53.50;;;;;;5063607;27;20579;-48
2022/05/28 08:32:56;;;;;;;5.60;0.97;;;19.00;53.50;;;;;;5142304;27;20467;-47
2022/05/28 08:35:39;;;;;;;2.70;1.00;;;19.00;53.50;;;;;;5120226;27;20648;-49
2022/05/28 08:38:22;;;;;;;1.43;0.83;;;19.00;53.40;;;;;;5104719;27;20799;-47
2022/05/28 08:41:07;;;;;;;1.90;1.07;;;19.00;53.40;;;;;;5076135;27;20582;-47
2022/05/28 08:43:58;;;;;;;1.20;0.90;;;19.00;53.40;;;;;;5080151;27;20611;-49
2022/05/28 08:46:39;;;;;;;1.00;0.80;;;19.00;53.50;;;;;;5119665;27;20521;-46
2022/05/28 08:49:24;;;;;;;1.00;0.80;;;19.00;53.50;;;;;;5069484;28;20582;-47
2022/05/28 08:52:12;;;;;;;0.90;0.60;;;19.00;53.40;;;;;;5101058;27;20532;-48
2022/05/28 08:54:58;;;;;;;1.10;0.97;;;18.90;53.40;;;;;;5064192;27;20802;-48
2022/05/28 08:57:53;;;;;;;1.77;0.90;;;18.90;54.50;;;;;;5073446;28;20561;-47
2022/05/28 09:00:43;;;;;;;1.90;1.17;;;19.00;53.50;;;;;;5080821;28;20544;-48
2022/05/28 09:03:27;;;;;;;1.17;0.80;;;18.90;53.40;;;;;;5076047;28;20596;-46
2022/05/28 09:06:13;;;;;;;2.37;1.00;;;18.90;53.50;;;;;;5070668;27;21005;-46
2022/05/28 09:08:57;;;;;;;2.50;0.90;;;18.90;53.50;;;;;;5119491;27;20535;-48
2022/05/28 09:11:40;;;;;;;2.20;0.90;;;19.00;53.50;;;;;;5117069;27;20511;-47
2022/05/28 09:14:25;;;;;;;1.73;1.17;;;18.90;53.40;;;;;;5083830;27;20581;-47
2022/05/28 09:17:10;;;;;;;0.87;0.73;;;18.90;53.30;;;;;;5116382;27;21059;-48
2022/05/28 09:19:50;;;;;;;1.63;0.90;;;18.90;53.30;;;;;;5075600;27;20552;-47
2022/05/28 09:22:33;;;;;;;6.43;1.20;;;18.90;53.50;;;;;;5080222;27;21324;-48
2022/05/28 09:25:17;;;;;;;17.57;2.17;;;18.90;52.60;;;;;;5064684;27;20586;-48
2022/05/28 09:28:11;;;;;;;4.80;1.73;;;18.90;52.50;;;;;;5091124;27;21033;-47
2022/05/28 09:31:03;;;;;;;5.00;1.60;;;18.90;52.40;;;;;;5121659;27;20542;-47
2022/05/28 09:34:19;;;;;;;5.50;1.13;;;18.90;53.80;;;;;;5104035;27;20579;-48
2022/05/28 09:37:12;;;;;;;3.00;1.60;;;18.90;52.70;;;;;;5073083;27;20583;-48
2022/05/28 09:40:01;;;;;;;3.13;1.10;;;18.90;52.80;;;;;;5064384;27;20619;-46
2022/05/28 09:42:58;;;;;;;1.13;1.00;;;18.90;52.90;;;;;;5137632;27;20597;-45
2022/05/28 09:45:49;;;;;;;4.03;1.50;;;18.90;53.00;;;;;;5115383;27;20597;-49
2022/05/28 09:48:30;;;;;;;1.43;1.20;;;18.90;53.00;;;;;;5055623;27;20540;-48
2022/05/28 09:51:23;;;;;;;2.20;1.20;;;18.90;53.00;;;;;;5117804;27;20608;-48
2022/05/28 09:54:20;;;;;;;2.60;1.67;;;18.90;52.90;;;;;;5111454;27;20568;-48
2022/05/28 09:57:09;;;;;;;2.07;1.30;;;18.90;53.00;;;;;;5075178;28;20545;-48
2022/05/28 09:59:55;;;;;;;2.93;1.40;;;18.90;52.80;;;;;;5076070;27;20658;-47
2022/05/28 10:02:43;;;;;;;1.90;0.70;;;18.90;52.70;;;;;;5102157;27;20639;-47
2022/05/28 10:05:29;;;;;;;1.73;1.00;;;18.90;52.70;;;;;;5061688;28;20579;-46
2022/05/28 10:08:14;;;;;;;2.43;1.27;;;18.90;52.50;;;;;;5081562;27;20544;-46
2022/05/28 10:10:57;;;;;;;2.80;1.00;;;18.90;52.70;;;;;;5080814;28;20554;-45
2022/05/28 10:13:46;;;;;;;2.17;1.03;;;18.90;52.60;;;;;;5070757;27;21020;-48
2022/05/28 10:16:37;;;;;;;2.17;1.00;;;18.90;53.60;;;;;;5079996;28;20535;-47
2022/05/28 10:19:34;;;;;;;1.40;1.10;;;18.90;52.50;;;;;;5066180;27;20567;-49
2022/05/28 10:22:21;;;;;;;1.30;1.00;;;18.90;52.40;;;;;;5072698;27;20630;-48
2022/05/28 10:25:09;;;;;;;1.43;1.20;;;18.90;52.30;;;;;;5064189;27;20674;-48
2022/05/28 10:27:53;;;;;;;4.03;2.03;;;18.90;52.60;;;;;;5098824;27;20544;-48
2022/05/28 10:30:36;;;;;;;1.63;0.90;;;18.90;52.30;;;;;;5081899;28;20524;-49
2022/05/28 10:33:23;;;;;;;1.87;1.00;;;18.90;52.40;;;;;;5079859;28;20524;-47
2022/05/28 10:36:09;;;;;;;2.30;1.00;;;18.90;52.60;;;;;;5080295;28;20535;-48
2022/05/28 10:38:50;;;;;;;3.20;1.00;;;18.90;52.30;;;;;;5120670;27;20560;-48
2022/05/28 10:41:32;;;;;;;0.90;0.80;;;18.90;52.70;;;;;;5080970;27;20512;-47
2022/05/28 10:44:15;;;;;;;1.50;1.00;;;18.90;52.80;;;;;;5085899;27;20578;-47
2022/05/28 10:47:08;;;;;;;2.60;0.97;;;18.90;52.20;;;;;;5100433;27;20530;-48
2022/05/28 10:50:02;;;;;;;3.67;1.00;;;18.90;52.10;;;;;;5066280;27;20570;-47
2022/05/28 10:52:59;;;;;;;2.67;1.13;;;18.90;52.20;;;;;;5058090;28;20600;-48
2022/05/28 10:56:06;;;;;;;1.33;0.83;;;18.90;52.40;;;;;;5079857;27;20520;-48
2022/05/28 10:58:57;;;;;;;1.63;1.00;;;18.90;51.90;;;;;;5096959;27;20544;-47
2022/05/28 11:01:46;;;;;;;1.90;1.00;;;18.90;52.00;;;;;;5122323;27;21055;-47
2022/05/28 11:04:49;;;;;;;2.17;1.00;;;18.90;52.10;;;;;;5068168;28;20579;-48
2022/05/28 11:07:43;;;;;;;1.33;1.10;;;18.90;52.00;;;;;;5109005;27;20570;-47
2022/05/28 11:10:40;;;;;;;1.47;1.10;;;18.90;51.90;;;;;;5101801;27;20541;-47
2022/05/28 11:13:41;;;;;;;2.50;0.83;;;18.90;51.80;;;;;;5111386;27;20558;-48
2022/05/28 11:16:41;;;;;;;1.33;1.10;;;18.90;51.70;;;;;;5100994;27;20935;-47
2022/05/28 11:19:37;;;;;;;1.23;0.80;;;18.90;51.70;;;;;;5068387;27;20542;-48
2022/05/28 11:22:43;;;;;;;1.10;0.83;;;18.90;51.60;;;;;;5095647;27;21509;-48
2022/05/28 11:25:29;;;;;;;1.30;0.87;;;18.90;51.80;;;;;;5101256;27;20542;-47
2022/05/28 11:28:29;;;;;;;1.37;0.70;;;18.90;51.80;;;;;;5068939;28;20553;-46
2022/05/28 11:31:15;;;;;;;2.33;1.13;;;18.90;51.90;;;;;;5120511;27;20618;-47
2022/05/28 11:34:04;;;;;;;1.53;1.10;;;19.00;50.10;;;;;;5070568;27;20596;-48
2022/05/28 11:36:48;;;;;;;1.33;0.70;;;19.00;51.00;;;;;;5111483;27;20912;-48
2022/05/28 11:39:41;;;;;;;1.70;0.90;;;19.00;51.40;;;;;;5102898;27;21066;-47
2022/05/28 11:42:31;;;;;;;1.20;0.60;;;19.00;51.50;;;;;;5078536;27;20519;-46
2022/05/28 11:45:18;;;;;;;2.17;1.00;;;19.00;51.60;;;;;;5066030;27;20945;-47
2022/05/28 11:48:05;;;;;;;1.90;0.80;;;19.00;51.80;;;;;;5091077;27;20543;-48
2022/05/28 11:53:54;;;;;;;2.10;0.83;;;19.00;51.80;;;;;;5072244;27;20638;-47
2022/05/28 11:56:35;;;;;;;0.80;0.67;;;19.00;51.40;;;;;;5122811;27;20609;-46
2022/05/28 11:59:21;;;;;;;3.23;0.70;;;19.00;51.40;;;;;;5054182;27;20543;-46
2022/05/28 12:02:07;;;;;;;2.37;0.90;;;19.00;51.70;;;;;;5122114;27;21044;-46
2022/05/28 12:04:49;;;;;;;2.10;0.77;;;19.00;52.00;;;;;;5076821;27;20594;-47
2022/05/28 12:07:38;;;;;;;1.00;0.90;;;19.00;51.50;;;;;;5124495;27;20533;-48
2022/05/28 12:10:37;;;;;;;1.80;0.87;;;19.00;51.30;;;;;;5055231;27;20584;-46
2022/05/28 12:13:32;;;;;;;2.50;1.00;;;19.00;51.00;;;;;;5053957;27;20567;-48
2022/05/28 12:16:27;;;;;;;2.67;1.00;;;19.00;50.20;;;;;;5079469;28;20585;-47
2022/05/28 12:19:24;;;;;;;2.10;0.80;;;19.10;50.70;;;;;;5065407;27;20966;-47
2022/05/28 12:22:28;;;;;;;1.80;0.97;;;19.10;50.50;;;;;;5114941;27;20670;-47
2022/05/28 12:25:25;;;;;;;4.47;0.87;;;19.00;50.00;;;;;;5023951;27;20574;-48
2022/05/28 12:28:11;;;;;;;1.53;0.70;;;19.10;50.50;;;;;;5066902;28;21006;-46
2022/05/28 12:30:54;;;;;;;3.00;1.10;;;19.10;50.90;;;;;;5102874;27;20528;-47
2022/05/28 12:33:50;;;;;;;2.40;0.80;;;19.10;51.10;;;;;;5072773;27;21183;-48
2022/05/28 12:36:41;;;;;;;0.83;0.73;;;19.10;51.20;;;;;;5057721;27;20567;-47
2022/05/28 12:39:36;;;;;;;1.43;0.80;;;19.10;51.00;;;;;;5100687;27;20599;-48
2022/05/28 12:42:23;;;;;;;4.60;0.80;;;19.10;50.80;;;;;;5117091;27;20533;-46
2022/05/28 12:45:19;;;;;;;1.27;0.70;;;19.10;50.50;;;;;;5046593;27;20592;-48
2022/05/28 12:48:07;;;;;;;1.53;1.10;;;19.10;50.80;;;;;;5074968;28;20645;-47
2022/05/28 12:51:18;;;;;;;2.30;1.17;;;19.10;51.20;;;;;;5081134;27;20536;-47
2022/05/28 12:54:01;;;;;;;2.00;0.93;;;19.10;50.80;;;;;;5069325;27;20597;-46
2022/05/28 12:56:45;;;;;;;2.50;0.93;;;19.10;50.80;;;;;;5119348;27;20525;-47
2022/05/28 12:59:38;;;;;;;2.97;1.70;;;19.10;48.60;;;;;;5067548;27;20906;-48
2022/05/28 13:02:28;;;;;;;3.80;1.07;;;19.10;48.30;;;;;;5078641;28;20532;-47
2022/05/28 13:05:12;;;;;;;2.47;0.80;;;19.00;46.40;;;;;;5052680;27;21101;-47
2022/05/28 13:07:57;;;;;;;3.10;1.07;;;19.00;46.40;;;;;;5082890;27;20662;-47
2022/05/28 13:10:47;;;;;;;1.00;0.80;;;19.00;46.20;;;;;;5073065;28;20529;-47
2022/05/28 13:14:10;;;;;;;2.80;1.10;;;19.00;46.00;;;;;;5059899;28;20542;-47
2022/05/28 13:17:13;;;;;;;4.43;1.40;;;19.00;45.30;;;;;;5069688;27;20928;-47
2022/05/28 13:20:17;;;;;;;1.43;0.90;;;18.90;44.70;;;;;;5064382;28;20566;-47
2022/05/28 13:23:20;;;;;;;2.63;1.00;;;18.90;44.60;;;;;;5073929;27;20585;-48
2022/05/28 13:26:30;;;;;;;2.40;0.90;;;18.90;43.80;;;;;;5078124;27;20556;-48
2022/05/28 13:29:22;;;;;;;1.60;1.03;;;18.90;44.10;;;;;;5134610;27;20618;-48
2022/05/28 13:32:09;;;;;;;2.60;1.17;;;18.90;44.90;;;;;;5115367;27;20945;-48
2022/05/28 13:34:59;;;;;;;1.90;0.87;;;18.90;44.90;;;;;;5077327;27;20549;-48
2022/05/28 13:37:45;;;;;;;1.90;0.83;;;18.90;45.70;;;;;;5120370;27;20520;-48
2022/05/28 13:40:31;;;;;;;3.00;0.97;;;19.00;45.80;;;;;;5062286;27;20594;-47
2022/05/28 13:43:14;;;;;;;2.00;0.80;;;19.00;46.10;;;;;;5065615;27;20592;-48
2022/05/28 13:46:04;;;;;;;1.30;0.60;;;19.00;46.50;;;;;;5120705;27;20515;-48
2022/05/28 13:48:51;;;;;;;2.40;1.00;;;19.10;47.00;;;;;;5077284;28;20552;-72
2022/05/28 13:51:32;;;;;;;3.80;1.13;;;19.10;47.20;;;;;;5077985;27;20519;-48
2022/05/28 13:54:13;;;;;;;1.87;0.93;;;19.10;47.40;;;;;;5069868;28;20606;-48
2022/05/28 13:56:59;;;;;;;2.90;1.50;;;19.10;47.30;;;;;;5075369;27;20536;-46
2022/05/28 13:59:55;;;;;;;2.33;0.97;;;19.10;47.60;;;;;;5104396;27;20539;-46
2022/05/28 14:02:37;;;;;;;2.30;0.80;;;19.10;47.50;;;;;;5117947;27;20961;-52
2022/05/28 14:05:28;;;;;;;3.27;1.20;;;19.10;47.60;;;;;;5060571;27;20820;-48
2022/05/28 14:08:19;;;;;;;2.50;0.73;;;19.20;46.30;;;;;;5108509;27;20882;-47
2022/05/28 14:11:07;;;;;;;2.70;0.90;;;19.10;46.10;;;;;;5101473;27;20556;-48
2022/05/28 14:13:50;;;;;;;1.77;0.90;;;19.10;46.70;;;;;;5085582;27;21011;-48
2022/05/28 14:16:37;;;;;;;1.10;0.73;;;19.10;47.00;;;;;;5122098;27;20581;-47
2022/05/28 14:19:22;;;;;;;2.80;0.80;;;19.20;47.40;;;;;;5111149;27;20627;-47
2022/05/28 14:22:05;;;;;;;1.93;0.73;;;19.20;47.70;;;;;;5071332;28;20532;-48
2022/05/28 14:24:47;;;;;;;0.97;0.87;;;19.20;47.80;;;;;;5065942;28;20595;-48